Time;durP1;ratioP1;P1;durP2;ratioP2;P2;SDS_P1;SDS_P2;PMS_P1;PMS_P2;Temp;Humidity;BMP_temperature;BMP_pressure;BME280_temperature;BME280_humidity;BME280_pressure;Samples;Min_cycle;Max_cycle;Signal;HPM_P1;HPM_P2
2024/02/29 00:00:54;;;;;;;19.63;12.88;;;1.40;99.90;;;;;;5048419;28;20210;-59
2024/02/29 00:03:21;;;;;;;18.27;13.05;;;1.40;99.90;;;;;;5047595;28;20242;-61
2024/02/29 00:05:48;;;;;;;17.45;13.93;;;1.40;99.90;;;;;;5048348;28;20297;-60
2024/02/29 00:08:15;;;;;;;16.92;10.48;;;1.30;99.90;;;;;;5044176;28;20215;-60
2024/02/29 00:10:42;;;;;;;13.50;10.25;;;1.30;99.90;;;;;;5047808;28;20642;-58
2024/02/29 00:13:10;;;;;;;17.67;12.57;;;1.30;99.90;;;;;;5046407;28;20264;-60
2024/02/29 00:15:37;;;;;;;20.10;13.55;;;1.30;99.90;;;;;;5047838;28;20252;-60
2024/02/29 00:18:06;;;;;;;22.25;14.75;;;1.20;99.90;;;;;;5044816;28;20655;-60
2024/02/29 00:20:34;;;;;;;18.58;12.80;;;1.20;99.90;;;;;;5047336;28;20306;-61
2024/02/29 00:23:01;;;;;;;20.13;11.77;;;1.20;99.90;;;;;;5045217;28;20317;-61
2024/02/29 00:25:28;;;;;;;19.25;13.65;;;1.20;99.90;;;;;;5043427;28;20475;-60
2024/02/29 00:27:55;;;;;;;24.67;16.10;;;1.20;99.90;;;;;;5047200;28;20209;-60
2024/02/29 00:30:21;;;;;;;22.35;14.65;;;1.20;99.90;;;;;;5047732;28;20206;-60
2024/02/29 00:32:49;;;;;;;19.58;14.57;;;1.20;99.90;;;;;;5067657;22;20320;-64
2024/02/29 00:35:18;;;;;;;23.90;14.02;;;1.10;99.90;;;;;;5068033;28;20234;-64
2024/02/29 00:37:44;;;;;;;18.88;12.57;;;1.10;99.90;;;;;;5068255;28;20205;-64
2024/02/29 00:40:12;;;;;;;18.70;12.80;;;1.10;99.90;;;;;;5066030;28;20241;-64
2024/02/29 00:42:39;;;;;;;21.27;14.95;;;1.10;99.90;;;;;;5066404;28;20343;-64
2024/02/29 00:45:06;;;;;;;20.33;13.60;;;1.10;99.90;;;;;;5067912;28;20221;-64
2024/02/29 00:47:33;;;;;;;16.13;13.35;;;1.00;99.90;;;;;;5068221;28;20216;-64
2024/02/29 00:50:00;;;;;;;19.52;15.00;;;1.00;99.90;;;;;;5067532;28;20216;-64
2024/02/29 00:52:28;;;;;;;23.33;14.65;;;1.00;99.90;;;;;;5064006;28;20230;-64
2024/02/29 00:54:55;;;;;;;17.70;13.05;;;1.00;99.90;;;;;;5065830;28;20205;-64
2024/02/29 00:57:22;;;;;;;22.35;14.77;;;1.00;99.90;;;;;;5068184;28;20214;-64
2024/02/29 00:59:49;;;;;;;20.70;14.23;;;1.00;99.90;;;;;;5067414;28;20292;-64
2024/02/29 01:02:16;;;;;;;20.42;14.60;;;1.00;99.90;;;;;;5067630;28;20210;-64
2024/02/29 01:04:43;;;;;;;22.95;13.52;;;1.00;99.90;;;;;;5067843;28;20216;-64
2024/02/29 01:07:09;;;;;;;20.30;13.20;;;1.00;99.90;;;;;;5067785;28;20855;-64
2024/02/29 01:09:38;;;;;;;16.27;12.05;;;0.90;99.90;;;;;;5067430;28;20236;-64
2024/02/29 01:12:05;;;;;;;18.05;14.90;;;0.90;99.90;;;;;;5067764;28;20216;-64
2024/02/29 01:14:32;;;;;;;21.75;13.98;;;0.90;99.90;;;;;;5067250;28;20237;-64
2024/02/29 01:16:59;;;;;;;20.17;13.93;;;0.90;99.90;;;;;;5067546;28;20226;-64
2024/02/29 01:19:25;;;;;;;17.83;15.70;;;0.90;99.90;;;;;;5067387;28;20216;-64
2024/02/29 01:21:52;;;;;;;20.52;13.05;;;0.90;99.90;;;;;;5067693;28;20206;-64
2024/02/29 01:24:19;;;;;;;18.60;14.82;;;0.90;99.90;;;;;;5066841;28;20226;-64
2024/02/29 01:26:47;;;;;;;16.98;12.20;;;0.80;99.90;;;;;;5067883;28;20206;-64
2024/02/29 01:29:14;;;;;;;20.77;13.45;;;0.80;99.90;;;;;;5067460;28;20225;-64
2024/02/29 01:31:41;;;;;;;20.90;12.45;;;0.80;99.90;;;;;;5062310;28;20206;-64
2024/02/29 01:34:08;;;;;;;28.08;13.93;;;0.80;99.90;;;;;;5066048;28;20242;-64
2024/02/29 01:36:35;;;;;;;20.55;14.80;;;0.80;99.90;;;;;;5062681;28;20230;-64
2024/02/29 01:39:02;;;;;;;19.15;14.10;;;0.70;99.90;;;;;;5067019;28;20212;-64
2024/02/29 01:41:28;;;;;;;23.60;15.30;;;0.70;99.90;;;;;;5071248;28;20727;-64
2024/02/29 01:43:57;;;;;;;24.73;15.93;;;0.70;99.90;;;;;;5070006;28;20323;-64
2024/02/29 01:46:24;;;;;;;24.55;15.38;;;0.70;99.90;;;;;;5061795;28;20298;-64
2024/02/29 01:48:52;;;;;;;24.10;14.40;;;0.70;99.90;;;;;;5070801;28;20233;-64
2024/02/29 01:51:20;;;;;;;21.88;15.43;;;0.60;99.90;;;;;;5066950;28;20700;-64
2024/02/29 01:53:47;;;;;;;21.90;14.82;;;0.60;99.90;;;;;;5056106;28;20233;-64
2024/02/29 01:56:14;;;;;;;22.48;16.13;;;0.60;99.90;;;;;;5057709;28;20233;-64
2024/02/29 01:58:42;;;;;;;21.80;16.20;;;0.60;99.90;;;;;;5071107;28;20593;-64
2024/02/29 02:01:10;;;;;;;17.30;13.35;;;0.60;99.90;;;;;;5070569;28;20680;-64
2024/02/29 02:03:38;;;;;;;26.00;15.30;;;0.60;99.90;;;;;;5070315;28;20715;-64
2024/02/29 02:06:05;;;;;;;26.52;18.55;;;0.50;99.90;;;;;;5070543;28;20201;-64
2024/02/29 02:08:33;;;;;;;17.40;13.98;;;0.50;99.90;;;;;;5063350;28;20584;-64
2024/02/29 02:11:00;;;;;;;23.63;14.77;;;0.50;99.90;;;;;;5066299;28;20280;-64
2024/02/29 02:13:27;;;;;;;21.63;15.45;;;0.50;99.90;;;;;;5069922;28;20308;-64
2024/02/29 02:15:54;;;;;;;19.35;14.57;;;0.50;99.90;;;;;;5070492;28;20295;-64
2024/02/29 02:18:22;;;;;;;23.98;16.08;;;0.40;99.90;;;;;;5070332;28;20216;-64
2024/02/29 02:20:54;;;;;;;21.33;16.30;;;0.40;99.90;;;;;;5070151;28;20902;-64
2024/02/29 02:23:21;;;;;;;26.60;15.50;;;0.50;99.90;;;;;;5069601;28;20291;-64
2024/02/29 02:25:48;;;;;;;21.10;14.13;;;0.40;99.90;;;;;;5069722;28;20217;-64
2024/02/29 02:28:14;;;;;;;23.27;16.40;;;0.40;99.90;;;;;;5069067;28;20296;-64
2024/02/29 02:30:41;;;;;;;22.38;15.38;;;0.40;99.90;;;;;;5068553;28;20216;-63
2024/02/29 02:33:09;;;;;;;22.60;14.65;;;0.40;99.90;;;;;;5069930;28;20251;-64
2024/02/29 02:35:35;;;;;;;21.95;16.77;;;0.40;99.90;;;;;;5070408;28;20226;-63
2024/02/29 02:38:04;;;;;;;21.08;14.60;;;0.40;99.90;;;;;;5070796;28;20616;-64
2024/02/29 02:40:31;;;;;;;20.90;16.02;;;0.30;99.90;;;;;;5070164;28;20216;-63
2024/02/29 02:42:58;;;;;;;23.52;14.70;;;0.30;99.90;;;;;;5069789;28;20233;-63
2024/02/29 02:45:25;;;;;;;24.33;17.25;;;0.30;99.90;;;;;;5070215;28;20209;-63
2024/02/29 02:47:52;;;;;;;23.83;16.23;;;0.30;99.90;;;;;;5070164;28;20693;-63
2024/02/29 02:50:19;;;;;;;22.98;16.50;;;0.30;99.90;;;;;;5069923;28;20220;-63
2024/02/29 02:52:46;;;;;;;25.08;16.70;;;0.20;99.90;;;;;;5069440;28;20728;-63
2024/02/29 02:55:14;;;;;;;25.05;16.00;;;0.20;99.90;;;;;;5070152;28;20249;-64
2024/02/29 02:57:41;;;;;;;20.35;14.85;;;0.20;99.90;;;;;;5069985;28;20229;-63
2024/02/29 03:00:10;;;;;;;21.13;12.90;;;0.20;99.90;;;;;;5069902;28;20237;-63
2024/02/29 03:02:39;;;;;;;23.40;15.15;;;0.10;99.90;;;;;;5069397;28;20306;-63
2024/02/29 03:05:06;;;;;;;24.52;16.00;;;0.10;99.90;;;;;;5070369;28;20217;-63
2024/02/29 03:07:33;;;;;;;29.88;17.92;;;0.10;99.90;;;;;;5071502;28;20233;-63
2024/02/29 03:10:00;;;;;;;21.40;15.90;;;0.10;99.90;;;;;;5069923;28;20680;-64
2024/02/29 03:12:28;;;;;;;25.05;16.48;;;0.10;99.90;;;;;;5069358;28;20324;-64
2024/02/29 03:14:55;;;;;;;22.88;14.52;;;0.00;99.90;;;;;;5069737;28;20206;-63
2024/02/29 03:17:22;;;;;;;24.00;16.98;;;0.00;99.90;;;;;;5069501;28;20248;-64
2024/02/29 03:19:49;;;;;;;24.00;17.38;;;0.00;99.90;;;;;;5069626;28;20216;-63
2024/02/29 03:22:15;;;;;;;26.27;16.35;;;0.00;99.90;;;;;;5069238;28;20221;-63
2024/02/29 03:24:43;;;;;;;29.23;17.02;;;0.00;99.90;;;;;;5069456;28;20210;-64
2024/02/29 03:27:10;;;;;;;26.48;15.70;;;0.00;99.90;;;;;;5069487;28;20705;-63
2024/02/29 03:29:39;;;;;;;29.55;16.42;;;0.00;99.90;;;;;;5069228;28;20210;-63
2024/02/29 03:32:06;;;;;;;24.02;15.98;;;0.00;99.90;;;;;;5069381;28;20205;-63
2024/02/29 03:34:33;;;;;;;26.85;16.30;;;0.00;99.90;;;;;;5068962;28;20213;-63
2024/02/29 03:37:00;;;;;;;20.98;14.60;;;0.00;99.90;;;;;;5069643;28;20233;-63
2024/02/29 03:39:26;;;;;;;22.55;16.90;;;0.00;99.90;;;;;;5069063;28;20306;-63
2024/02/29 03:41:53;;;;;;;28.48;15.85;;;0.00;99.90;;;;;;5069401;28;20212;-63
2024/02/29 03:44:20;;;;;;;27.25;17.05;;;0.00;99.90;;;;;;5065203;28;20225;-63
2024/02/29 03:46:48;;;;;;;19.67;15.55;;;0.00;99.90;;;;;;5047120;28;20198;-63
2024/02/29 03:49:15;;;;;;;24.30;15.07;;;-0.10;99.90;;;;;;5047387;28;20220;-63
2024/02/29 03:51:42;;;;;;;22.92;16.75;;;-0.10;99.90;;;;;;5048320;28;20212;-63
2024/02/29 03:54:09;;;;;;;25.63;15.18;;;-0.10;99.90;;;;;;5048511;28;20238;-63
2024/02/29 03:56:35;;;;;;;25.45;18.75;;;-0.10;99.90;;;;;;5049015;28;20825;-63
2024/02/29 03:59:02;;;;;;;24.23;15.02;;;-0.10;99.90;;;;;;5048794;28;20216;-63
2024/02/29 04:01:29;;;;;;;26.55;16.85;;;-0.10;99.90;;;;;;5057651;28;20215;-63
2024/02/29 04:03:57;;;;;;;24.77;17.27;;;-0.20;99.90;;;;;;5066477;28;20232;-63
2024/02/29 04:06:24;;;;;;;20.98;16.40;;;-0.20;99.90;;;;;;5062788;28;20712;-63
2024/02/29 04:08:51;;;;;;;33.40;16.70;;;-0.20;99.90;;;;;;5068522;28;20205;-63
2024/02/29 04:11:18;;;;;;;19.42;14.68;;;-0.20;99.90;;;;;;5068439;28;20698;-63
2024/02/29 04:13:45;;;;;;;21.10;14.60;;;-0.20;99.90;;;;;;5067921;28;20236;-63
2024/02/29 04:16:12;;;;;;;22.27;15.40;;;-0.20;99.90;;;;;;5067888;28;20225;-63
2024/02/29 04:18:39;;;;;;;29.52;16.75;;;-0.20;99.90;;;;;;5059163;28;20595;-63
2024/02/29 04:21:08;;;;;;;29.08;15.73;;;-0.20;99.90;;;;;;5067101;28;20209;-62
2024/02/29 04:23:34;;;;;;;22.45;17.55;;;-0.30;99.90;;;;;;5053169;28;20601;-63
2024/02/29 04:26:01;;;;;;;23.13;16.17;;;-0.20;99.90;;;;;;5063852;28;20206;-63
2024/02/29 04:28:28;;;;;;;21.45;16.50;;;-0.30;99.90;;;;;;5067646;28;20749;-63
2024/02/29 04:30:55;;;;;;;25.48;16.33;;;-0.30;99.90;;;;;;5068556;28;20209;-63
2024/02/29 04:33:22;;;;;;;16.33;11.98;;;-0.30;99.90;;;;;;5067984;28;20662;-63
2024/02/29 04:35:49;;;;;;;19.13;13.52;;;-0.30;99.90;;;;;;5068672;28;20300;-63
2024/02/29 04:38:17;;;;;;;20.10;14.68;;;-0.30;99.90;;;;;;5068673;28;20216;-63
2024/02/29 04:40:44;;;;;;;25.52;15.35;;;-0.40;99.90;;;;;;5068769;28;20221;-63
2024/02/29 04:43:11;;;;;;;30.15;17.85;;;-0.40;99.90;;;;;;5067958;28;20236;-63
2024/02/29 04:45:38;;;;;;;24.65;14.70;;;-0.40;99.90;;;;;;5068654;28;20209;-63
2024/02/29 04:48:05;;;;;;;21.73;15.02;;;-0.40;99.90;;;;;;5068409;28;20208;-63
2024/02/29 04:50:32;;;;;;;24.58;15.75;;;-0.40;99.90;;;;;;5068296;28;20206;-63
2024/02/29 04:52:59;;;;;;;22.58;13.55;;;-0.50;99.90;;;;;;5067629;28;20618;-63
2024/02/29 04:55:27;;;;;;;23.98;14.25;;;-0.50;99.90;;;;;;5068496;28;20209;-63
2024/02/29 04:57:53;;;;;;;26.02;17.40;;;-0.50;99.90;;;;;;5068361;28;20225;-63
2024/02/29 05:00:21;;;;;;;27.40;15.40;;;-0.50;99.90;;;;;;5068273;28;20591;-63
2024/02/29 05:02:47;;;;;;;26.05;16.83;;;-0.50;99.90;;;;;;5067735;28;20229;-63
2024/02/29 05:05:15;;;;;;;21.05;14.10;;;-0.50;99.90;;;;;;5068298;28;20308;-63
2024/02/29 05:07:43;;;;;;;24.00;17.42;;;-0.50;99.90;;;;;;5068586;28;20205;-63
2024/02/29 05:10:11;;;;;;;30.40;17.88;;;-0.50;99.90;;;;;;5068301;28;20212;-62
2024/02/29 05:12:39;;;;;;;25.83;15.98;;;-0.50;99.90;;;;;;5067796;28;20719;-63
2024/02/29 05:15:07;;;;;;;23.48;16.63;;;-0.50;99.90;;;;;;5070735;28;20214;-63
2024/02/29 05:17:34;;;;;;;27.80;16.85;;;-0.60;99.90;;;;;;5072081;28;20226;-63
2024/02/29 05:20:00;;;;;;;22.80;16.27;;;-0.60;99.90;;;;;;5071990;28;20214;-63
2024/02/29 05:22:28;;;;;;;24.23;16.15;;;-0.60;99.90;;;;;;5071263;28;20230;-63
2024/02/29 05:24:55;;;;;;;21.58;14.70;;;-0.60;99.90;;;;;;5071970;28;20215;-63
2024/02/29 05:27:22;;;;;;;18.00;12.07;;;-0.50;99.90;;;;;;5071716;28;20211;-63
2024/02/29 05:29:50;;;;;;;20.98;13.52;;;-0.50;99.90;;;;;;5071625;28;20220;-63
2024/02/29 05:32:17;;;;;;;19.67;12.80;;;-0.50;99.90;;;;;;5070906;28;20710;-63
2024/02/29 05:34:46;;;;;;;25.67;14.27;;;-0.40;99.90;;;;;;5071650;28;20300;-63
2024/02/29 05:37:12;;;;;;;22.00;13.98;;;-0.40;99.90;;;;;;5071730;28;20233;-63
2024/02/29 05:39:39;;;;;;;22.15;13.82;;;-0.40;99.90;;;;;;5071316;28;20217;-63
2024/02/29 05:42:06;;;;;;;21.38;13.80;;;-0.30;99.90;;;;;;5071718;28;20236;-63
2024/02/29 05:44:33;;;;;;;24.55;17.70;;;-0.30;99.90;;;;;;5071375;28;20731;-63
2024/02/29 05:47:02;;;;;;;18.27;13.07;;;-0.20;99.90;;;;;;5071542;28;20210;-63
2024/02/29 05:49:28;;;;;;;17.38;12.95;;;-0.20;99.90;;;;;;5071492;28;20283;-63
2024/02/29 05:51:56;;;;;;;16.63;11.90;;;-0.20;99.90;;;;;;5071563;28;20579;-63
2024/02/29 05:54:22;;;;;;;25.13;13.95;;;-0.20;99.90;;;;;;5070984;28;20229;-63
2024/02/29 05:56:49;;;;;;;15.05;11.10;;;-0.10;99.90;;;;;;5071112;28;20236;-63
2024/02/29 05:59:16;;;;;;;16.95;12.93;;;-0.10;99.90;;;;;;5071007;28;20216;-63
2024/02/29 06:01:43;;;;;;;20.90;13.65;;;0.00;99.90;;;;;;5071035;28;20205;-63
2024/02/29 06:04:11;;;;;;;17.38;11.05;;;0.00;99.90;;;;;;5070667;28;20340;-63
2024/02/29 06:06:38;;;;;;;18.42;12.13;;;0.10;99.90;;;;;;5071203;28;20595;-63
2024/02/29 06:09:04;;;;;;;18.80;13.07;;;0.10;99.90;;;;;;5071017;28;20212;-63
2024/02/29 06:11:31;;;;;;;18.05;12.82;;;0.20;99.90;;;;;;5071011;28;20215;-63
2024/02/29 06:14:02;;;;;;;19.60;13.85;;;0.20;99.90;;;;;;5070458;28;20232;-63
2024/02/29 06:16:29;;;;;;;21.27;12.95;;;0.20;99.90;;;;;;5071323;28;20292;-63
2024/02/29 06:18:56;;;;;;;19.38;12.07;;;0.30;99.90;;;;;;5071130;28;20745;-63
2024/02/29 06:21:24;;;;;;;16.60;12.55;;;0.30;99.90;;;;;;5071010;28;20382;-63
2024/02/29 06:23:51;;;;;;;21.05;14.27;;;0.30;99.90;;;;;;5070334;28;20229;-63
2024/02/29 06:26:18;;;;;;;17.90;12.65;;;0.40;99.90;;;;;;5070314;28;20680;-63
2024/02/29 06:28:44;;;;;;;17.83;14.20;;;0.50;99.90;;;;;;5070516;28;20210;-63
2024/02/29 06:31:12;;;;;;;18.42;12.52;;;0.50;99.90;;;;;;5070374;28;20212;-63
2024/02/29 06:33:38;;;;;;;20.58;13.23;;;0.60;99.90;;;;;;5074738;22;20231;-59
2024/02/29 06:36:06;;;;;;;21.02;15.82;;;0.60;99.90;;;;;;5030583;28;20211;-60
2024/02/29 06:38:34;;;;;;;21.48;12.95;;;0.70;99.90;;;;;;5030305;28;20261;-61
2024/02/29 06:41:01;;;;;;;17.38;13.25;;;0.70;99.90;;;;;;5030231;28;20215;-60
2024/02/29 06:43:28;;;;;;;18.73;12.70;;;0.70;99.90;;;;;;5029974;28;20281;-61
2024/02/29 06:45:54;;;;;;;16.33;12.48;;;0.80;99.90;;;;;;5030226;28;20215;-61
2024/02/29 06:48:21;;;;;;;21.70;14.88;;;0.80;99.90;;;;;;5030599;28;20217;-59
2024/02/29 06:50:49;;;;;;;19.70;13.60;;;0.90;99.90;;;;;;5030020;28;20707;-61
2024/02/29 06:53:16;;;;;;;21.15;13.27;;;0.90;99.90;;;;;;5029615;28;20275;-61
2024/02/29 06:55:44;;;;;;;21.33;13.40;;;1.00;99.90;;;;;;5030074;28;20211;-60
2024/02/29 06:58:11;;;;;;;18.83;13.43;;;1.00;99.90;;;;;;5029958;28;20219;-60
2024/02/29 07:00:39;;;;;;;22.35;15.77;;;1.10;99.90;;;;;;5029810;28;20207;-60
2024/02/29 07:03:06;;;;;;;22.13;15.10;;;1.20;99.90;;;;;;5029526;28;20328;-61
2024/02/29 07:05:33;;;;;;;20.98;14.43;;;1.20;99.90;;;;;;5029870;28;20301;-60
2024/02/29 07:08:01;;;;;;;19.63;13.85;;;1.30;99.90;;;;;;5029643;28;20238;-58
2024/02/29 07:10:28;;;;;;;24.20;15.15;;;1.30;99.90;;;;;;5029860;28;20587;-59
2024/02/29 07:12:56;;;;;;;26.20;15.13;;;1.40;99.90;;;;;;5029297;28;20227;-59
2024/02/29 07:15:23;;;;;;;18.40;15.68;;;1.40;99.90;;;;;;5029134;28;20708;-61
2024/02/29 07:17:50;;;;;;;24.73;14.25;;;1.50;99.90;;;;;;5029292;28;20233;-62
2024/02/29 07:20:17;;;;;;;20.98;15.00;;;1.60;99.90;;;;;;5029650;28;20219;-62
2024/02/29 07:22:46;;;;;;;25.67;15.82;;;1.70;99.90;;;;;;5029171;28;20239;-60
2024/02/29 07:25:14;;;;;;;26.67;16.88;;;1.80;99.90;;;;;;5029505;28;20254;-61
2024/02/29 07:27:43;;;;;;;26.73;18.27;;;1.80;99.90;;;;;;5029389;28;20207;-61
2024/02/29 07:30:11;;;;;;;26.13;18.45;;;1.90;99.90;;;;;;5029242;28;20239;-61
2024/02/29 07:32:38;;;;;;;29.20;19.38;;;2.00;99.90;;;;;;5028677;28;20211;-61
2024/02/29 07:35:06;;;;;;;26.90;19.42;;;2.10;99.90;;;;;;5029276;28;20603;-60
2024/02/29 07:37:33;;;;;;;24.00;17.27;;;2.20;99.90;;;;;;5028732;28;20237;-61
2024/02/29 07:40:00;;;;;;;26.73;19.90;;;2.20;99.90;;;;;;5028881;28;20222;-59
2024/02/29 07:42:27;;;;;;;26.75;18.13;;;2.30;99.90;;;;;;5028798;28;20211;-58
2024/02/29 07:44:54;;;;;;;28.98;18.75;;;2.40;99.90;;;;;;5029226;28;20241;-58
2024/02/29 07:47:22;;;;;;;26.10;19.00;;;2.50;99.90;;;;;;5028487;28;20221;-58
2024/02/29 07:49:49;;;;;;;22.27;15.32;;;2.60;99.90;;;;;;5028766;28;20294;-61
2024/02/29 07:52:16;;;;;;;29.02;19.20;;;2.60;99.90;;;;;;5027491;28;20585;-60
2024/02/29 07:54:45;;;;;;;24.98;16.85;;;2.80;99.90;;;;;;5021999;28;20615;-61
2024/02/29 07:57:12;;;;;;;26.48;17.75;;;2.80;99.90;;;;;;5028697;28;20211;-61
2024/02/29 07:59:39;;;;;;;21.40;18.15;;;2.90;99.90;;;;;;5028773;28;20211;-60
2024/02/29 08:02:05;;;;;;;26.65;19.65;;;3.00;99.90;;;;;;5028979;28;20219;-60
2024/02/29 08:04:34;;;;;;;27.20;21.40;;;3.10;99.90;;;;;;5028129;28;20606;-59
2024/02/29 08:07:01;;;;;;;29.42;21.15;;;3.20;99.90;;;;;;5026807;28;20218;-61
2024/02/29 08:09:27;;;;;;;37.88;25.75;;;3.30;99.90;;;;;;5027299;28;20719;-61
2024/02/29 08:11:55;;;;;;;31.83;20.55;;;3.40;99.90;;;;;;5028651;28;20221;-58
2024/02/29 08:14:22;;;;;;;27.13;18.95;;;3.50;99.90;;;;;;5027940;28;20223;-62
2024/02/29 08:16:48;;;;;;;28.52;21.40;;;3.60;99.90;;;;;;5028524;28;20780;-62
2024/02/29 08:19:16;;;;;;;36.35;20.45;;;3.70;99.90;;;;;;5028391;28;20227;-62
2024/02/29 08:21:44;;;;;;;32.75;21.30;;;3.80;99.90;;;;;;5028728;28;20238;-62
2024/02/29 08:24:11;;;;;;;27.67;19.23;;;4.00;99.90;;;;;;5028323;28;20309;-62
2024/02/29 08:26:37;;;;;;;35.08;21.23;;;4.10;99.90;;;;;;5027916;28;20290;-61
2024/02/29 08:29:04;;;;;;;29.85;22.42;;;4.20;99.90;;;;;;5027276;28;20225;-62
2024/02/29 08:31:31;;;;;;;32.10;22.30;;;4.30;99.90;;;;;;5027934;28;20550;-62
2024/02/29 08:33:58;;;;;;;29.67;23.63;;;4.50;99.90;;;;;;5022126;28;20250;-63
2024/02/29 08:36:25;;;;;;;26.73;21.25;;;4.60;99.90;;;;;;5010013;28;20302;-62
2024/02/29 08:38:53;;;;;;;34.25;23.17;;;4.70;99.90;;;;;;5012980;28;20227;-62
2024/02/29 08:41:20;;;;;;;31.98;22.10;;;4.80;99.90;;;;;;5010722;28;20210;-62
2024/02/29 08:43:47;;;;;;;30.52;22.65;;;4.90;99.90;;;;;;5016592;28;20231;-62
2024/02/29 08:46:14;;;;;;;29.27;21.88;;;4.90;99.90;;;;;;5020706;28;20213;-63
2024/02/29 08:48:40;;;;;;;32.28;21.67;;;5.00;99.90;;;;;;5029368;28;20203;-63
2024/02/29 08:51:08;;;;;;;57.42;27.35;;;5.00;99.90;;;;;;5024539;28;20214;-62
2024/02/29 08:53:35;;;;;;;36.97;21.55;;;5.10;99.90;;;;;;5024910;28;20783;-63
2024/02/29 08:56:03;;;;;;;31.90;20.52;;;5.10;99.90;;;;;;5027439;28;20211;-63
2024/02/29 08:58:30;;;;;;;26.30;20.10;;;5.20;99.90;;;;;;5026646;28;20226;-61
2024/02/29 09:00:57;;;;;;;28.30;20.33;;;5.30;99.90;;;;;;5026318;28;20210;-62
2024/02/29 09:03:25;;;;;;;26.88;19.48;;;5.40;99.90;;;;;;5018863;28;20865;-63
2024/02/29 09:05:51;;;;;;;27.85;18.60;;;5.50;99.90;;;;;;5025390;28;20301;-62
2024/02/29 09:08:18;;;;;;;38.88;21.65;;;5.60;99.90;;;;;;5025803;28;20214;-62
2024/02/29 09:10:45;;;;;;;28.35;20.38;;;5.70;99.90;;;;;;5018488;28;20672;-62
2024/02/29 09:13:14;;;;;;;32.83;21.42;;;5.80;99.90;;;;;;5014976;28;20227;-63
2024/02/29 09:15:41;;;;;;;22.63;20.02;;;5.80;99.90;;;;;;5022717;28;20208;-62
2024/02/29 09:18:08;;;;;;;30.42;22.35;;;5.90;99.90;;;;;;5017474;28;20322;-62
2024/02/29 09:20:35;;;;;;;28.67;21.73;;;6.00;99.90;;;;;;5017816;28;20211;-60
2024/02/29 09:23:02;;;;;;;31.75;23.70;;;6.10;99.90;;;;;;5020697;28;20231;-61
2024/02/29 09:25:29;;;;;;;27.88;21.30;;;6.20;99.90;;;;;;5018932;28;20218;-62
2024/02/29 09:27:55;;;;;;;29.85;19.58;;;6.40;99.90;;;;;;5017691;28;20673;-62
2024/02/29 09:30:24;;;;;;;29.33;21.27;;;6.50;99.90;;;;;;5020817;28;20208;-62
2024/02/29 09:32:52;;;;;;;32.05;21.88;;;6.60;99.90;;;;;;5020853;28;20231;-61
2024/02/29 09:35:19;;;;;;;30.73;22.15;;;6.80;99.90;;;;;;5028632;28;20211;-62
2024/02/29 09:37:46;;;;;;;31.08;22.02;;;7.00;99.90;;;;;;5027734;28;20234;-59
2024/02/29 09:40:15;;;;;;;31.73;23.30;;;7.30;99.90;;;;;;5029646;28;20677;-63
2024/02/29 09:42:44;;;;;;;25.50;19.53;;;7.50;99.90;;;;;;5029155;28;20208;-63
2024/02/29 09:45:12;;;;;;;33.45;21.85;;;7.60;99.90;;;;;;5029689;28;20469;-63
2024/02/29 09:47:41;;;;;;;30.20;21.25;;;7.80;99.90;;;;;;5022766;28;20617;-62
2024/02/29 09:50:09;;;;;;;34.43;23.10;;;8.00;99.90;;;;;;5028958;28;20242;-60
2024/02/29 09:52:38;;;;;;;28.60;21.70;;;8.10;99.90;;;;;;5029373;28;20532;-63
2024/02/29 09:55:07;;;;;;;34.70;24.77;;;8.20;99.90;;;;;;5028968;28;20457;-62
2024/02/29 09:57:35;;;;;;;31.80;22.90;;;8.40;99.90;;;;;;5030460;28;20960;-63
2024/02/29 10:00:02;;;;;;;30.03;22.07;;;8.60;99.90;;;;;;5029005;28;20461;-62
2024/02/29 10:02:29;;;;;;;26.47;21.03;;;8.80;99.90;;;;;;5029538;28;20446;-63
2024/02/29 10:04:57;;;;;;;28.03;22.40;;;9.00;99.90;;;;;;5028964;28;20470;-63
2024/02/29 10:07:25;;;;;;;30.50;21.87;;;9.10;99.90;;;;;;5030242;28;20462;-63
2024/02/29 10:09:53;;;;;;;28.70;23.30;;;9.30;99.90;;;;;;5029752;28;20834;-62
2024/02/29 10:12:21;;;;;;;24.73;22.03;;;9.40;99.90;;;;;;5029848;28;20464;-63
2024/02/29 10:14:48;;;;;;;32.40;23.60;;;9.60;99.90;;;;;;5029953;28;20564;-62
2024/02/29 10:17:15;;;;;;;28.50;21.13;;;9.90;99.90;;;;;;5030143;28;20457;-63
2024/02/29 10:19:42;;;;;;;30.10;22.90;;;10.10;99.90;;;;;;5029989;28;20485;-63
2024/02/29 10:22:10;;;;;;;35.77;23.50;;;10.30;99.90;;;;;;5029407;28;20456;-63
2024/02/29 10:24:37;;;;;;;31.50;22.97;;;10.40;99.90;;;;;;5029384;28;20473;-63
2024/02/29 10:27:05;;;;;;;28.67;22.47;;;10.60;99.90;;;;;;5030120;28;20454;-63
2024/02/29 10:29:32;;;;;;;31.70;23.77;;;10.70;99.90;;;;;;5030080;28;20445;-63
2024/02/29 10:31:59;;;;;;;30.00;21.53;;;10.80;99.90;;;;;;5029840;28;20454;-63
2024/02/29 10:34:26;;;;;;;30.20;23.20;;;11.00;99.90;;;;;;5044520;28;20491;-64
2024/02/29 10:36:53;;;;;;;31.10;21.83;;;11.10;99.90;;;;;;5049454;28;20453;-63
2024/02/29 10:39:21;;;;;;;28.77;24.27;;;11.30;99.90;;;;;;5049804;28;20488;-59
2024/02/29 10:41:50;;;;;;;30.83;23.73;;;11.50;99.90;;;;;;5047505;28;20449;-61
2024/02/29 10:44:20;;;;;;;32.70;23.33;;;11.50;99.90;;;;;;5040246;28;20476;-62
2024/02/29 10:46:49;;;;;;;32.40;23.57;;;11.60;99.90;;;;;;5049190;28;20460;-62
2024/02/29 10:49:26;;;;;;;31.70;23.43;;;11.60;99.90;;;;;;5049195;28;20452;-61
2024/02/29 10:52:02;;;;;;;32.50;23.80;;;11.50;99.90;;;;;;5049425;28;20553;-63
2024/02/29 10:54:38;;;;;;;33.97;25.53;;;11.40;99.90;;;;;;5048749;28;20491;-63
2024/02/29 10:57:09;;;;;;;30.70;23.50;;;11.50;99.90;;;;;;5049180;28;20456;-62
2024/02/29 10:59:40;;;;;;;35.23;24.10;;;11.60;99.90;;;;;;5038774;28;21015;-62
2024/02/29 11:02:07;;;;;;;35.37;24.70;;;11.80;99.90;;;;;;5044376;28;20449;-62
2024/02/29 11:04:34;;;;;;;30.33;23.07;;;12.00;99.90;;;;;;5045547;28;20482;-58
2024/02/29 11:07:03;;;;;;;32.33;23.63;;;12.10;99.90;;;;;;5040377;28;20970;-62
2024/02/29 11:09:32;;;;;;;30.93;22.30;;;12.20;99.90;;;;;;5049021;28;20449;-63
2024/02/29 11:12:09;;;;;;;33.00;22.10;;;12.20;99.90;;;;;;5047819;28;20453;-62
2024/02/29 11:14:36;;;;;;;32.70;24.10;;;12.30;99.90;;;;;;5047735;28;20475;-61
2024/02/29 11:17:05;;;;;;;31.77;24.03;;;12.30;99.90;;;;;;5036646;28;20445;-62
2024/02/29 11:19:34;;;;;;;31.40;22.47;;;12.20;99.90;;;;;;5047744;28;20998;-61
2024/02/29 11:22:11;;;;;;;31.47;23.90;;;12.20;99.90;;;;;;5048947;28;20460;-59
2024/02/29 11:24:43;;;;;;;32.93;22.93;;;12.30;99.90;;;;;;5022393;28;20469;-59
2024/02/29 11:27:11;;;;;;;31.67;22.47;;;12.40;99.90;;;;;;5022515;28;20452;-60
2024/02/29 11:29:39;;;;;;;30.73;22.33;;;12.50;99.90;;;;;;5026532;28;20533;-60
2024/02/29 11:32:06;;;;;;;35.67;24.53;;;12.60;99.90;;;;;;5023152;28;20446;-61
2024/02/29 11:34:33;;;;;;;29.00;22.00;;;12.60;99.90;;;;;;5024520;28;20474;-60
2024/02/29 11:37:00;;;;;;;25.90;22.00;;;12.50;99.90;;;;;;5023421;28;21021;-61
2024/02/29 11:39:28;;;;;;;26.47;22.40;;;12.50;99.90;;;;;;5020901;28;20521;-60
2024/02/29 11:42:03;;;;;;;30.17;23.70;;;12.50;99.90;;;;;;5019633;28;20557;-62
2024/02/29 11:44:30;;;;;;;29.37;19.90;;;12.70;99.90;;;;;;5027397;28;20465;-60
2024/02/29 11:46:57;;;;;;;27.73;22.80;;;12.80;99.90;;;;;;5027801;28;20484;-60
2024/02/29 11:49:26;;;;;;;26.07;22.90;;;12.90;99.70;;;;;;5019465;28;20461;-60
2024/02/29 11:51:53;;;;;;;25.60;20.10;;;13.00;99.90;;;;;;5014340;28;20478;-60
2024/02/29 11:54:21;;;;;;;30.17;22.87;;;13.10;99.10;;;;;;5011032;28;20473;-61
2024/02/29 11:56:48;;;;;;;28.20;21.77;;;13.10;98.80;;;;;;5018895;28;20447;-61
2024/02/29 11:59:16;;;;;;;29.17;23.40;;;13.10;99.90;;;;;;5020634;28;20875;-62
2024/02/29 12:01:44;;;;;;;31.23;24.77;;;13.30;99.90;;;;;;5018115;28;20957;-61
2024/02/29 12:04:11;;;;;;;26.37;23.20;;;13.40;98.80;;;;;;5018666;28;20577;-60
2024/02/29 12:06:40;;;;;;;26.30;21.80;;;13.40;97.90;;;;;;5016786;28;20563;-60
2024/02/29 12:09:10;;;;;;;28.33;22.10;;;13.20;98.50;;;;;;5018725;28;20453;-60
2024/02/29 12:11:37;;;;;;;32.33;23.87;;;13.10;98.80;;;;;;5023948;28;20932;-60
2024/02/29 12:14:06;;;;;;;27.50;21.87;;;13.00;98.90;;;;;;5009966;28;21044;-60
2024/02/29 12:16:35;;;;;;;26.87;22.90;;;13.10;99.30;;;;;;5025654;28;20534;-60
2024/02/29 12:19:02;;;;;;;29.17;23.43;;;13.20;99.40;;;;;;5012033;28;20508;-60
2024/02/29 12:21:29;;;;;;;27.47;23.53;;;13.40;99.90;;;;;;5022738;28;20454;-60
2024/02/29 12:23:56;;;;;;;25.80;23.00;;;13.50;98.70;;;;;;5007679;28;20478;-60
2024/02/29 12:26:24;;;;;;;28.07;23.43;;;13.80;98.80;;;;;;5014148;28;20886;-60
2024/02/29 12:28:51;;;;;;;30.27;22.33;;;14.00;98.20;;;;;;5021424;28;20469;-60
2024/02/29 12:31:18;;;;;;;24.47;20.40;;;14.30;98.70;;;;;;5027415;28;20536;-61
2024/02/29 12:33:48;;;;;;;31.30;21.63;;;14.50;98.10;;;;;;5049309;23;20559;-60